createdAt,value
2016-11-26T00:00:19.206Z,89.54
2016-11-26T00:01:30.544Z,89.64
2016-11-26T00:02:41.839Z,89.54
2016-11-26T00:03:53.633Z,89.64
2016-11-26T00:05:05.448Z,89.54
2016-11-26T00:06:17.621Z,89.54
2016-11-26T00:07:28.952Z,90.11
2016-11-26T00:08:41.111Z,90.21
2016-11-26T00:09:52.600Z,90.31
2016-11-26T00:11:03.876Z,89.92
2016-11-26T00:12:17.155Z,90.11
2016-11-26T00:13:28.317Z,90.4
2016-11-26T00:14:40.212Z,89.92
2016-11-26T00:15:52.234Z,89.73
2016-11-26T00:17:04.371Z,89.64
2016-11-26T00:18:14.567Z,89.64
2016-11-26T00:19:26.619Z,89.45
2016-11-26T00:20:39.284Z,89.73
2016-11-26T00:21:52.342Z,89.83
2016-11-26T00:23:03.108Z,89.83
2016-11-26T00:24:13.818Z,89.83
2016-11-26T00:25:25.570Z,89.54
2016-11-26T00:26:37.324Z,89.73
2016-11-26T00:27:47.908Z,89.59
2016-11-26T00:29:00.744Z,89.68
2016-11-26T00:30:13.033Z,89.73
2016-11-26T00:31:25.218Z,89.64
2016-11-26T00:32:36.752Z,89.83
2016-11-26T00:33:49.024Z,89.73
2016-11-26T00:35:01.797Z,89.83
2016-11-26T00:36:13.567Z,89.59
2016-11-26T00:37:24.752Z,89.11
2016-11-26T00:38:35.952Z,88.63
2016-11-26T00:39:46.541Z,89.01
2016-11-26T00:40:58.860Z,88.82
2016-11-26T00:42:11.132Z,89.01
2016-11-26T00:43:23.582Z,89.3
2016-11-26T00:44:34.868Z,89.01
2016-11-26T00:45:47.654Z,89.01
2016-11-26T00:46:58.636Z,88.92
2016-11-26T00:48:10.769Z,89.2
2016-11-26T00:49:21.534Z,89.11
2016-11-26T00:50:33.033Z,89.68
2016-11-26T00:51:44.578Z,89.92
2016-11-26T00:52:56.057Z,89.49
2016-11-26T00:54:08.285Z,89.11
2016-11-26T00:55:19.985Z,89.59
2016-11-26T00:56:31.059Z,89.73
2016-11-26T00:57:43.790Z,90.31
2016-11-26T00:58:55.531Z,90.21
2016-11-26T01:00:07.699Z,89.68
2016-11-26T01:01:18.334Z,89.39
2016-11-26T01:02:30.453Z,89.59
2016-11-26T01:03:42.681Z,89.59
2016-11-26T01:04:54.632Z,89.49
2016-11-26T01:06:07.769Z,89.68
2016-11-26T01:07:20.295Z,89.78
2016-11-26T01:08:32.555Z,89.92
2016-11-26T01:09:43.981Z,89.97
2016-11-26T01:10:56.060Z,90.4
2016-11-26T01:12:08.287Z,90.69
2016-11-26T01:13:19.628Z,90.5
2016-11-26T01:14:31.112Z,90.31
2016-11-26T01:15:43.123Z,90.59
2016-11-26T01:16:54.293Z,90.69
2016-11-26T01:18:04.856Z,90.97
2016-11-26T01:19:18.017Z,90.97
2016-11-26T01:20:28.996Z,90.78
2016-11-26T01:21:41.075Z,90.69
2016-11-26T01:22:52.920Z,90.59
2016-11-26T01:24:03.827Z,90.54
2016-11-26T01:25:16.424Z,90.45
2016-11-26T01:26:27.984Z,90.16
2016-11-26T01:27:38.570Z,89.97
2016-11-26T01:28:50.117Z,91.02
2016-11-26T01:30:01.832Z,90.97
2016-11-26T01:31:15.135Z,91.07
2016-11-26T01:32:27.075Z,89.83
2016-11-26T01:33:38.427Z,91.11
2016-11-26T01:34:48.787Z,90.54
2016-11-26T01:35:59.660Z,90.73
2016-11-26T01:37:10.330Z,90.25
2016-11-26T01:38:22.520Z,90.83
2016-11-26T01:39:35.114Z,90.64
2016-11-26T01:40:47.847Z,90.73
2016-11-26T01:41:59.424Z,90.64
2016-11-26T01:43:10.767Z,90.92
2016-11-26T01:44:21.951Z,91.02
2016-11-26T01:45:33.032Z,90.92
2016-11-26T01:46:45.069Z,90.54
2016-11-26T01:47:57.003Z,90.73
2016-11-26T01:49:10.224Z,90.25
2016-11-26T01:50:21.496Z,89.97
2016-11-26T01:51:32.543Z,90.73
2016-11-26T01:52:43.929Z,90.54
2016-11-26T01:53:56.120Z,90.64
2016-11-26T01:55:07.405Z,90.64
2016-11-26T01:56:19.895Z,90.25
2016-11-26T01:57:32.651Z,89.87
2016-11-26T01:58:45.089Z,90.16
2016-11-26T01:59:55.548Z,90.73
2016-11-26T02:01:08.250Z,90.16
2016-11-26T02:02:19.990Z,89.97
2016-11-26T02:03:32.463Z,90.64
2016-11-26T02:04:44.587Z,90.54
2016-11-26T02:05:55.982Z,90.35
2016-11-26T02:07:08.711Z,90.16
2016-11-26T02:08:20.436Z,90.16
2016-11-26T02:09:32.295Z,90.16
2016-11-26T02:10:44.677Z,90.45
2016-11-26T02:11:56.937Z,90.06
2016-11-26T02:13:09.639Z,90.45
2016-11-26T02:14:22.038Z,90.25
2016-11-26T02:15:33.996Z,90.06
2016-11-26T02:16:45.612Z,90.45
2016-11-26T02:17:57.277Z,90.16
2016-11-26T02:19:09.484Z,90.25
2016-11-26T02:20:22.185Z,90.73
2016-11-26T02:21:34.059Z,90.35
2016-11-26T02:22:45.505Z,90.25
2016-11-26T02:23:56.307Z,89.59
2016-11-26T02:25:08.484Z,89.63
2016-11-26T02:26:20.683Z,89.53
2016-11-26T02:27:31.184Z,89.63
2016-11-26T02:28:41.638Z,89.63
2016-11-26T02:29:52.829Z,89.92
2016-11-26T02:31:03.728Z,89.53
2016-11-26T02:32:16.438Z,89.63
2016-11-26T02:33:28.687Z,89.63
2016-11-26T02:34:40.970Z,88.96
2016-11-26T02:35:52.749Z,88.87
2016-11-26T02:37:04.284Z,88.96
2016-11-26T02:38:16.432Z,88.77
2016-11-26T02:39:28.363Z,88.77
2016-11-26T02:40:40.991Z,89.25
2016-11-26T02:41:53.331Z,89.15
2016-11-26T02:43:04.808Z,89.63
2016-11-26T02:44:16.325Z,89.34
2016-11-26T02:45:27.975Z,89.34
2016-11-26T02:46:41.131Z,89.15
2016-11-26T02:47:52.799Z,88.96
2016-11-26T02:49:05.066Z,89.15
2016-11-26T02:50:16.286Z,89.06
2016-11-26T02:51:29.035Z,89.87
2016-11-26T02:52:39.548Z,90.2
2016-11-26T02:53:51.773Z,90.06
2016-11-26T02:55:03.403Z,89.82
2016-11-26T02:56:14.941Z,89.25
2016-11-26T02:57:27.456Z,90.06
2016-11-26T02:58:38.711Z,90.35
2016-11-26T02:59:50.292Z,90.16
2016-11-26T03:01:01.872Z,90.64
2016-11-26T03:02:13.071Z,90.45
2016-11-26T03:03:24.540Z,90.2
2016-11-26T03:04:36.511Z,90.73
2016-11-26T03:05:48.889Z,90.73
2016-11-26T03:07:00.648Z,90.92
2016-11-26T03:08:12.120Z,90.64
2016-11-26T03:09:23.784Z,90.25
2016-11-26T03:10:36.209Z,90.54
2016-11-26T03:11:48.981Z,90.16
2016-11-26T03:13:00.263Z,90.2
2016-11-26T03:14:11.966Z,90.2
2016-11-26T03:15:24.117Z,90.73
2016-11-26T03:16:36.228Z,90.83
2016-11-26T03:17:47.328Z,90.73
2016-11-26T03:19:00.530Z,91.21
2016-11-26T03:20:12.857Z,90.92
2016-11-26T03:21:24.763Z,90.83
2016-11-26T03:22:36.290Z,90.25
2016-11-26T03:23:47.803Z,90.83
2016-11-26T03:25:00.511Z,91.59
2016-11-26T03:26:12.555Z,91.11
2016-11-26T03:27:24.194Z,91.3
2016-11-26T03:28:35.671Z,91.97
2016-11-26T03:29:48.877Z,91.88
2016-11-26T03:31:00.648Z,91.69
2016-11-26T03:32:12.760Z,91.69
2016-11-26T03:33:23.815Z,91.88
2016-11-26T03:34:35.997Z,91.11
2016-11-26T03:35:46.969Z,90.92
2016-11-26T03:36:58.734Z,91.21
2016-11-26T03:38:11.261Z,91.3
2016-11-26T03:39:22.948Z,91.59
2016-11-26T03:40:34.214Z,91.59
2016-11-26T03:41:46.516Z,91.21
2016-11-26T03:42:58.206Z,91.4
2016-11-26T03:44:10.254Z,91.11
2016-11-26T03:45:21.830Z,90.97
2016-11-26T03:46:34.376Z,91.25
2016-11-26T03:47:46.799Z,90.92
2016-11-26T03:48:59.970Z,90.92
2016-11-26T03:50:11.247Z,91.21
2016-11-26T03:51:22.624Z,90.3
2016-11-26T03:52:34.364Z,90.97
2016-11-26T03:53:45.426Z,91.3
2016-11-26T03:54:57.535Z,91.5
2016-11-26T03:56:09.000Z,90.78
2016-11-26T03:57:21.729Z,91.64
2016-11-26T03:58:33.923Z,91.64
2016-11-26T03:59:46.194Z,91.74
2016-11-26T04:00:57.338Z,92.55
2016-11-26T04:02:08.484Z,92.55
2016-11-26T04:03:20.054Z,92.5
2016-11-26T04:04:30.830Z,91.83
2016-11-26T04:05:44.209Z,92.07
2016-11-26T04:06:55.687Z,92.36
2016-11-26T04:08:07.609Z,92.74
2016-11-26T04:09:19.283Z,92.59
2016-11-26T04:10:31.379Z,92.88
2016-11-26T04:11:44.149Z,93.26
2016-11-26T04:12:56.233Z,70.23
2016-11-26T04:14:08.361Z,73.86
2016-11-26T04:15:19.403Z,73.25
2016-11-26T04:16:31.184Z,72.81
2016-11-26T04:17:43.526Z,71.67
2016-11-26T04:18:54.469Z,75.01
2016-11-26T04:20:06.021Z,99.99
2016-11-26T04:21:17.758Z,97.56
2016-11-26T04:22:27.958Z,97.75
2016-11-26T04:23:40.776Z,96.8
2016-11-26T04:24:53.236Z,95.36
2016-11-26T04:26:05.878Z,95.94
2016-11-26T04:27:18.630Z,95.56
2016-11-26T04:28:31.090Z,94.98
2016-11-26T04:29:43.681Z,95.36
2016-11-26T04:30:55.872Z,96.66
2016-11-26T04:32:07.657Z,98.42
2016-11-26T04:33:19.905Z,99.99
2016-11-26T04:34:30.896Z,99.99
2016-11-26T04:35:42.010Z,98.28
2016-11-26T04:36:53.030Z,96.94
2016-11-26T04:38:04.976Z,97.61
2016-11-26T04:39:15.654Z,97.8
2016-11-26T04:40:27.266Z,98.08
2016-11-26T04:41:38.475Z,97.71
2016-11-26T04:42:49.876Z,97.89
2016-11-26T04:44:01.213Z,99.99
2016-11-26T04:45:13.254Z,98.52
2016-11-26T04:46:25.315Z,97.37
2016-11-26T04:47:38.091Z,96.51
2016-11-26T04:48:50.213Z,96.51
2016-11-26T04:50:02.371Z,96.32
2016-11-26T04:51:13.349Z,96.89
2016-11-26T04:52:26.628Z,98.94
2016-11-26T04:53:38.815Z,99.99
2016-11-26T04:54:50.371Z,99.9
2016-11-26T04:56:03.503Z,99.99
2016-11-26T04:57:15.507Z,99.99
2016-11-26T04:58:26.750Z,99.99
2016-11-26T04:59:39.550Z,99.99
2016-11-26T05:00:51.509Z,99.99
2016-11-26T05:02:04.174Z,99.99
2016-11-26T05:03:16.646Z,99.99
2016-11-26T05:04:28.559Z,99.99
2016-11-26T05:05:39.312Z,99.99
2016-11-26T05:06:50.629Z,99.99
2016-11-26T05:08:02.542Z,99.99
2016-11-26T05:09:15.371Z,99.99
2016-11-26T05:10:26.805Z,99.99
2016-11-26T05:11:37.136Z,99.99
2016-11-26T05:12:49.641Z,99.99
2016-11-26T05:14:00.257Z,99.99
2016-11-26T05:15:12.808Z,99.99
2016-11-26T05:16:25.504Z,99.99
2016-11-26T05:17:37.301Z,99.99
2016-11-26T05:18:49.471Z,99.99
2016-11-26T05:20:02.104Z,99.99
2016-11-26T05:21:13.715Z,99.99
2016-11-26T05:22:26.719Z,99.99
2016-11-26T05:23:39.020Z,99.99
2016-11-26T05:24:50.563Z,99.99
2016-11-26T05:26:03.062Z,99.99
2016-11-26T05:27:13.560Z,99.9
2016-11-26T05:28:26.725Z,99.99
2016-11-26T05:29:38.363Z,99.99
2016-11-26T05:30:49.534Z,99.99
2016-11-26T05:32:00.577Z,99.99
2016-11-26T05:33:12.489Z,99.99
2016-11-26T05:34:25.047Z,99.99
2016-11-26T05:35:36.644Z,99.99
2016-11-26T05:36:47.295Z,99.99
2016-11-26T05:37:58.629Z,99.99
2016-11-26T05:39:09.296Z,99.99
2016-11-26T05:40:20.844Z,99.99
2016-11-26T05:41:32.475Z,99.99
2016-11-26T05:42:43.516Z,99.99
2016-11-26T05:43:56.754Z,99.99
2016-11-26T05:45:09.373Z,99.99
2016-11-26T05:46:21.415Z,99.99
2016-11-26T05:47:33.552Z,99.99
2016-11-26T05:48:46.083Z,99.99
2016-11-26T05:49:57.781Z,99.99
2016-11-26T05:51:08.763Z,99.99
2016-11-26T05:52:19.428Z,99.99
2016-11-26T05:53:30.480Z,99.99
2016-11-26T05:54:42.175Z,99.99
2016-11-26T05:55:55.199Z,99.99
2016-11-26T05:57:07.114Z,99.99
2016-11-26T05:58:18.502Z,99.99
2016-11-26T05:59:30.175Z,99.99
2016-11-26T06:00:43.328Z,99.99
2016-11-26T06:01:55.115Z,99.99
2016-11-26T06:03:07.450Z,99.99
2016-11-26T06:04:19.641Z,99.99
2016-11-26T06:05:31.856Z,99.99
2016-11-26T06:06:43.808Z,99.99
2016-11-26T06:07:55.408Z,99.99
2016-11-26T06:09:07.006Z,99.99
2016-11-26T06:10:19.187Z,99.99
2016-11-26T06:11:31.471Z,50.9
2016-11-26T06:12:43.972Z,54.13
2016-11-26T06:13:55.325Z,53.55
2016-11-26T06:15:08.014Z,60.71
2016-11-26T06:16:20.239Z,61.41
2016-11-26T06:17:31.319Z,60.07
2016-11-26T06:18:43.295Z,61.03
2016-11-26T06:19:55.519Z,58.99
2016-11-26T06:21:08.722Z,57.85
2016-11-26T06:22:19.874Z,56.82
2016-11-26T06:23:31.865Z,73.07
2016-11-26T06:24:44.056Z,76.4
2016-11-26T06:25:55.163Z,83.38
2016-11-26T06:27:07.639Z,87.68
2016-11-26T06:28:20.801Z,93.12
2016-11-26T06:29:31.537Z,99.99
2016-11-26T06:30:42.435Z,99.99
2016-11-26T06:31:54.235Z,99.99
2016-11-26T06:33:06.969Z,99.99
2016-11-26T06:34:18.590Z,99.99
2016-11-26T06:35:29.832Z,99.8
2016-11-26T06:36:41.689Z,99.99
2016-11-26T06:37:53.386Z,99.99
2016-11-26T06:39:05.223Z,99.99
2016-11-26T06:40:17.834Z,99.99
2016-11-26T06:41:30.351Z,99.66
2016-11-26T06:42:41.352Z,99.57
2016-11-26T06:43:54.563Z,99.85
2016-11-26T06:45:05.595Z,99.99
2016-11-26T06:46:17.707Z,99.99
2016-11-26T06:47:30.310Z,99.28
2016-11-26T06:48:42.934Z,99.28
2016-11-26T06:49:54.001Z,99.28
2016-11-26T06:51:06.256Z,99.43
2016-11-26T06:52:17.736Z,99.28
2016-11-26T06:53:29.359Z,99.48
2016-11-26T06:54:41.313Z,99.9
2016-11-26T06:55:53.198Z,99.43
2016-11-26T06:57:06.539Z,99.52
2016-11-26T06:58:18.473Z,99.09
2016-11-26T06:59:29.915Z,99.95
2016-11-26T07:00:42.109Z,99.99
2016-11-26T07:01:53.974Z,99.99
2016-11-26T07:03:06.558Z,99.48
2016-11-26T07:04:18.764Z,99.19
2016-11-26T07:05:29.506Z,98.9
2016-11-26T07:06:41.791Z,99.28
2016-11-26T07:07:54.530Z,99.09
2016-11-26T07:09:07.316Z,99.28
2016-11-26T07:10:18.672Z,99.57
2016-11-26T07:11:30.152Z,99.38
2016-11-26T07:12:42.705Z,99.38
2016-11-26T07:13:54.257Z,99.57
2016-11-26T07:15:06.515Z,99.99
2016-11-26T07:16:18.618Z,99.99
2016-11-26T07:17:30.240Z,99.99
2016-11-26T07:18:42.443Z,99.99
2016-11-26T07:19:53.899Z,99.99
2016-11-26T07:21:06.985Z,99.99
2016-11-26T07:22:18.382Z,99.99
2016-11-26T07:23:30.149Z,99.99
2016-11-26T07:24:42.994Z,99.99
2016-11-26T07:25:55.714Z,99.99
2016-11-26T07:27:08.457Z,99.99
2016-11-26T07:28:20.385Z,99.99
2016-11-26T07:29:32.281Z,99.99
2016-11-26T07:30:43.621Z,99.99
2016-11-26T07:31:56.420Z,99.99
2016-11-26T07:33:08.523Z,99.99
2016-11-26T07:34:21.151Z,99.99
2016-11-26T07:35:33.260Z,99.99
2016-11-26T07:36:44.457Z,99.99
2016-11-26T07:37:55.844Z,99.99
2016-11-26T07:39:07.234Z,99.99
2016-11-26T07:40:18.710Z,99.99
2016-11-26T07:41:31.805Z,99.99
2016-11-26T07:42:43.030Z,99.99
2016-11-26T07:43:55.305Z,99.99
2016-11-26T07:45:08.514Z,99.99
2016-11-26T07:46:21.708Z,99.99
2016-11-26T07:47:34.732Z,99.99
2016-11-26T07:48:46.427Z,99.99
2016-11-26T07:49:58.164Z,99.99
2016-11-26T07:51:10.787Z,99.99
2016-11-26T07:52:22.144Z,99.99
2016-11-26T07:53:33.911Z,99.99
2016-11-26T07:54:47.135Z,99.99
2016-11-26T07:56:00.399Z,99.99
2016-11-26T07:57:12.948Z,99.99
2016-11-26T07:58:25.722Z,99.99
2016-11-26T07:59:37.003Z,99.99
2016-11-26T08:00:47.581Z,99.99
2016-11-26T08:01:58.526Z,99.99
2016-11-26T08:03:11.084Z,99.99
2016-11-26T08:04:22.984Z,99.99
2016-11-26T08:05:35.728Z,99.99
2016-11-26T08:06:48.548Z,99.99
2016-11-26T08:07:59.396Z,99.99
2016-11-26T08:09:10.260Z,99.99
2016-11-26T08:10:20.907Z,99.99
2016-11-26T08:11:33.033Z,99.99
2016-11-26T08:12:45.317Z,99.99
2016-11-26T08:13:56.531Z,99.99
2016-11-26T08:15:09.166Z,99.99
2016-11-26T08:16:20.911Z,99.99
2016-11-26T08:17:31.596Z,99.99
2016-11-26T08:18:43.656Z,99.99
2016-11-26T08:19:56.139Z,99.99
2016-11-26T08:21:07.821Z,99.99
2016-11-26T08:22:19.656Z,99.99
2016-11-26T08:23:31.338Z,99.99
2016-11-26T08:24:44.660Z,99.99
2016-11-26T08:25:55.991Z,99.99
2016-11-26T08:27:08.477Z,99.99
2016-11-26T08:28:20.575Z,99.99
2016-11-26T08:29:31.976Z,99.99
2016-11-26T08:30:44.773Z,99.99
2016-11-26T08:31:56.828Z,99.99
2016-11-26T08:33:08.239Z,99.99
2016-11-26T08:34:21.382Z,99.99
2016-11-26T08:35:34.176Z,99.99
2016-11-26T08:36:46.744Z,99.99
2016-11-26T08:38:00.009Z,99.99
2016-11-26T08:39:12.385Z,99.99
2016-11-26T08:40:25.576Z,99.99
2016-11-26T08:41:38.317Z,99.99
2016-11-26T08:42:51.436Z,99.99
2016-11-26T08:44:02.708Z,99.99
2016-11-26T08:45:14.866Z,99.99
2016-11-26T08:46:26.773Z,99.99
2016-11-26T08:47:38.242Z,99.99
2016-11-26T08:48:48.675Z,99.99
2016-11-26T08:49:59.179Z,99.99
2016-11-26T08:51:10.615Z,99.99
2016-11-26T08:52:21.836Z,99.99
2016-11-26T08:53:34.633Z,99.99
2016-11-26T08:54:45.615Z,99.99
2016-11-26T08:55:57.914Z,99.99
2016-11-26T08:57:09.123Z,99.99
2016-11-26T08:58:20.126Z,99.99
2016-11-26T08:59:30.878Z,99.99
2016-11-26T09:00:42.376Z,99.99
2016-11-26T09:01:52.905Z,99.99
2016-11-26T09:03:04.938Z,99.99
2016-11-26T09:04:16.349Z,99.99
2016-11-26T09:05:27.969Z,99.99
2016-11-26T09:06:39.194Z,99.99
2016-11-26T09:07:50.543Z,99.99
2016-11-26T09:09:02.444Z,99.99
2016-11-26T09:10:15.301Z,99.99
2016-11-26T09:11:26.960Z,99.99
2016-11-26T09:12:39.447Z,99.99
2016-11-26T09:13:50.104Z,99.99
2016-11-26T09:15:02.349Z,99.99
2016-11-26T09:16:13.261Z,99.99
2016-11-26T09:17:25.892Z,99.99
2016-11-26T09:18:38.211Z,99.99
2016-11-26T09:19:49.728Z,99.99
2016-11-26T09:21:01.231Z,99.99
2016-11-26T09:22:13.249Z,99.99
2016-11-26T09:23:24.913Z,99.99
2016-11-26T09:24:37.667Z,99.99
2016-11-26T09:25:48.592Z,99.99
2016-11-26T09:26:59.756Z,99.99
2016-11-26T09:28:11.965Z,99.99
2016-11-26T09:29:24.757Z,99.99
2016-11-26T09:30:38.004Z,99.99
2016-11-26T09:31:49.374Z,99.99
2016-11-26T09:33:00.682Z,99.99
2016-11-26T09:34:12.685Z,99.99
2016-11-26T09:35:23.831Z,99.99
2016-11-26T09:36:34.971Z,99.99
2016-11-26T09:37:47.706Z,99.99
2016-11-26T09:39:00.510Z,99.99
2016-11-26T09:40:10.992Z,99.99
2016-11-26T09:41:21.592Z,99.99
2016-11-26T09:42:34.220Z,99.99
2016-11-26T09:43:45.833Z,99.99
2016-11-26T09:44:55.924Z,99.91
2016-11-26T09:46:08.036Z,99.24
2016-11-26T09:47:20.194Z,98.24
2016-11-26T09:48:33.392Z,97.42
2016-11-26T09:49:45.667Z,98.38
2016-11-26T09:50:56.293Z,99.19
2016-11-26T09:52:07.555Z,99.96
2016-11-26T09:53:18.885Z,99.48
2016-11-26T09:54:30.625Z,99.87
2016-11-26T09:55:43.410Z,99.99
2016-11-26T09:56:54.831Z,99.29
2016-11-26T09:58:05.974Z,99.58
2016-11-26T09:59:17.515Z,97.95
2016-11-26T10:00:28.827Z,99.15
2016-11-26T10:01:41.219Z,97.61
2016-11-26T10:02:54.486Z,97.61
2016-11-26T10:04:06.566Z,97.8
2016-11-26T10:05:18.046Z,97.42
2016-11-26T10:06:28.168Z,97.95
2016-11-26T10:07:39.539Z,97.66
2016-11-26T10:08:50.628Z,98.52
2016-11-26T10:10:01.363Z,98.57
2016-11-26T10:11:14.482Z,98.57
2016-11-26T10:12:26.348Z,99.99
2016-11-26T10:13:38.799Z,99.58
2016-11-26T10:14:50.797Z,99.63
2016-11-26T10:16:03.068Z,98.71
2016-11-26T10:17:15.140Z,99.34
2016-11-26T10:18:26.629Z,99.77
2016-11-26T10:19:38.677Z,99.38
2016-11-26T10:20:50.800Z,99.58
2016-11-26T10:22:03.036Z,99.87
2016-11-26T10:23:13.975Z,99.99
2016-11-26T10:24:25.119Z,99.99
2016-11-26T10:25:36.907Z,99.99
2016-11-26T10:26:48.999Z,99.72
2016-11-26T10:28:01.859Z,99.99
2016-11-26T10:29:12.657Z,99.99
2016-11-26T10:30:24.033Z,99.99
2016-11-26T10:31:35.444Z,99.99
2016-11-26T10:32:47.743Z,99.99
2016-11-26T10:33:59.275Z,99.99
2016-11-26T10:35:10.698Z,99.99
2016-11-26T10:36:23.791Z,99.99
2016-11-26T10:37:37.090Z,99.99
2016-11-26T10:38:49.614Z,99.99
2016-11-26T10:40:00.657Z,99.99
2016-11-26T10:41:12.141Z,99.99
2016-11-26T10:42:22.644Z,99.99
2016-11-26T10:43:34.576Z,99.99
2016-11-26T10:44:44.789Z,99.99
2016-11-26T10:45:56.093Z,99.99
2016-11-26T10:47:06.979Z,99.99
2016-11-26T10:48:19.000Z,99.99
2016-11-26T10:49:30.271Z,99.99
2016-11-26T10:50:41.835Z,99.99
2016-11-26T10:51:52.979Z,99.99
2016-11-26T10:53:05.280Z,99.99
2016-11-26T10:54:16.929Z,99.99
2016-11-26T10:55:28.355Z,99.99
2016-11-26T10:56:41.120Z,99.99
2016-11-26T10:57:54.060Z,99.99
2016-11-26T10:59:07.248Z,99.99
2016-11-26T11:00:18.594Z,99.99
2016-11-26T11:01:30.144Z,99.99
2016-11-26T11:02:41.496Z,99.99
2016-11-26T11:03:52.994Z,99.99
2016-11-26T11:05:04.388Z,99.99
2016-11-26T11:06:15.424Z,99.99
2016-11-26T11:07:27.391Z,99.99
2016-11-26T11:08:38.738Z,99.99
2016-11-26T11:09:51.881Z,99.99
2016-11-26T11:11:02.860Z,99.99
2016-11-26T11:12:14.705Z,99.99
2016-11-26T11:13:26.767Z,99.99
2016-11-26T11:14:39.078Z,99.99
2016-11-26T11:15:51.606Z,99.99
2016-11-26T11:17:04.296Z,99.99
2016-11-26T11:18:15.621Z,99.99
2016-11-26T11:19:28.349Z,99.99
2016-11-26T11:20:40.273Z,99.99
2016-11-26T11:21:51.869Z,99.99
2016-11-26T11:23:02.600Z,99.99
2016-11-26T11:24:13.400Z,99.99
2016-11-26T11:25:24.818Z,99.99
2016-11-26T11:26:36.692Z,99.99
2016-11-26T11:27:48.612Z,99.99
2016-11-26T11:29:01.343Z,99.99
2016-11-26T11:30:13.454Z,99.99
2016-11-26T11:31:24.328Z,99.99
2016-11-26T11:32:36.358Z,99.99
2016-11-26T11:33:47.782Z,99.99
2016-11-26T11:35:00.970Z,99.99
2016-11-26T11:36:14.266Z,99.99
2016-11-26T11:37:26.829Z,99.99
2016-11-26T11:38:38.555Z,99.99
2016-11-26T11:39:50.514Z,99.99
2016-11-26T11:41:00.902Z,99.99
2016-11-26T11:42:13.474Z,99.99
2016-11-26T11:43:25.505Z,99.99
2016-11-26T11:44:37.140Z,99.99
2016-11-26T11:45:48.758Z,99.99
2016-11-26T11:47:00.749Z,99.99
2016-11-26T11:48:12.463Z,47.52
2016-11-26T11:49:23.132Z,66.06
2016-11-26T11:50:34.990Z,72.28
2016-11-26T11:51:46.355Z,74.48
2016-11-26T11:52:59.065Z,75.71
2016-11-26T11:54:11.653Z,0
2016-11-26T11:55:22.779Z,0
2016-11-26T11:56:34.310Z,0
2016-11-26T11:57:45.989Z,0
2016-11-26T11:58:57.563Z,0
2016-11-26T12:00:08.793Z,0
2016-11-26T12:01:20.128Z,0
2016-11-26T12:02:31.519Z,0
2016-11-26T12:03:42.584Z,0
2016-11-26T12:04:53.578Z,0
2016-11-26T12:06:04.423Z,0
2016-11-26T12:07:15.703Z,0
2016-11-26T12:08:26.223Z,0
2016-11-26T12:09:38.032Z,0
2016-11-26T12:10:50.053Z,0
2016-11-26T12:12:02.522Z,0
2016-11-26T12:13:13.973Z,0
2016-11-26T12:14:25.999Z,0
2016-11-26T12:15:37.372Z,0
2016-11-26T12:16:50.528Z,0
2016-11-26T12:18:01.343Z,0
2016-11-26T12:19:12.319Z,0
2016-11-26T12:20:22.956Z,0
2016-11-26T12:21:33.715Z,0
2016-11-26T12:22:45.125Z,0
2016-11-26T12:23:56.626Z,12.62
2016-11-26T12:25:07.241Z,18.65
2016-11-26T12:26:18.805Z,35.1
2016-11-26T12:27:30.106Z,69.29
2016-11-26T12:28:41.534Z,99.99
2016-11-26T12:29:54.769Z,99.99
2016-11-26T12:31:06.742Z,99.99
2016-11-26T12:32:16.838Z,99.99
2016-11-26T12:33:29.011Z,99.99
2016-11-26T12:34:39.408Z,99.99
2016-11-26T12:35:50.793Z,99.99
2016-11-26T12:37:01.826Z,99.99
2016-11-26T12:38:12.879Z,99.99
2016-11-26T12:39:24.262Z,99.99
2016-11-26T12:40:36.190Z,99.99
2016-11-26T12:41:48.917Z,99.99
2016-11-26T12:43:00.226Z,99.99
2016-11-26T12:44:11.041Z,99.99
2016-11-26T12:45:23.026Z,99.99
2016-11-26T12:46:34.268Z,99.99
2016-11-26T12:47:45.814Z,99.99
2016-11-26T12:48:58.216Z,99.99
2016-11-26T12:50:09.485Z,99.99
2016-11-26T12:51:21.587Z,99.99
2016-11-26T12:52:33.779Z,99.99
2016-11-26T12:53:45.256Z,99.99
2016-11-26T12:54:57.062Z,99.99
2016-11-26T12:56:07.959Z,99.99
2016-11-26T12:57:20.560Z,99.99
2016-11-26T12:58:32.483Z,99.99
2016-11-26T12:59:43.747Z,99.99
2016-11-26T13:00:55.503Z,99.99
2016-11-26T13:02:08.258Z,99.99
2016-11-26T13:03:19.502Z,99.99
2016-11-26T13:04:29.635Z,99.99
2016-11-26T13:05:41.059Z,99.99
2016-11-26T13:06:52.369Z,99.99
2016-11-26T13:08:04.157Z,99.99
2016-11-26T13:09:15.707Z,99.99
2016-11-26T13:10:27.975Z,99.99
2016-11-26T13:11:40.438Z,99.99
2016-11-26T13:12:51.714Z,99.99
2016-11-26T13:14:04.877Z,99.99
2016-11-26T13:15:16.769Z,99.99
2016-11-26T13:16:29.065Z,99.99
2016-11-26T13:17:40.574Z,99.99
2016-11-26T13:18:52.916Z,99.99
2016-11-26T13:20:04.378Z,99.99
2016-11-26T13:21:16.303Z,99.99
2016-11-26T13:22:27.647Z,99.99
2016-11-26T13:23:39.778Z,99.99
2016-11-26T13:24:50.757Z,99.99
2016-11-26T13:26:01.859Z,99.99
2016-11-26T13:27:13.682Z,99.99
2016-11-26T13:28:25.641Z,99.99
2016-11-26T13:29:37.175Z,99.99
2016-11-26T13:30:48.901Z,99.99
2016-11-26T13:32:01.563Z,99.99
2016-11-26T13:33:13.208Z,99.99
2016-11-26T13:34:25.283Z,99.99
2016-11-26T13:35:36.936Z,99.99
2016-11-26T13:36:48.695Z,99.99
2016-11-26T13:38:00.083Z,99.99
2016-11-26T13:39:10.581Z,99.99
2016-11-26T13:40:22.917Z,99.99
2016-11-26T13:41:34.851Z,99.99
2016-11-26T13:42:45.917Z,99.99
2016-11-26T13:43:56.811Z,99.99
2016-11-26T13:45:08.298Z,99.99
2016-11-26T13:46:19.233Z,99.99
2016-11-26T13:47:31.225Z,99.99
2016-11-26T13:48:42.439Z,99.99
2016-11-26T13:49:53.956Z,99.99
2016-11-26T13:51:06.393Z,99.99
2016-11-26T13:52:18.132Z,99.99
2016-11-26T13:53:29.241Z,99.99
2016-11-26T13:54:41.314Z,99.99
2016-11-26T13:55:52.717Z,99.99
2016-11-26T13:57:03.971Z,99.99
2016-11-26T13:58:15.239Z,99.99
2016-11-26T13:59:27.549Z,99.99
2016-11-26T14:00:38.006Z,99.99
2016-11-26T14:01:49.555Z,99.99
2016-11-26T14:03:00.335Z,99.99
2016-11-26T14:04:11.561Z,99.99
2016-11-26T14:05:22.575Z,99.99
2016-11-26T14:06:33.433Z,99.99
2016-11-26T14:07:44.555Z,99.99
2016-11-26T14:08:56.257Z,99.99
2016-11-26T14:10:08.672Z,99.99
2016-11-26T14:11:20.518Z,99.99
2016-11-26T14:12:32.908Z,99.99
2016-11-26T14:13:43.952Z,99.99
2016-11-26T14:14:56.085Z,99.99
2016-11-26T14:16:08.197Z,99.99
2016-11-26T14:17:20.262Z,99.99
2016-11-26T14:18:31.120Z,99.99
2016-11-26T14:19:41.714Z,99.99
2016-11-26T14:20:53.000Z,99.99
2016-11-26T14:22:06.815Z,99.99
2016-11-26T14:23:18.275Z,99.99
2016-11-26T14:24:29.168Z,99.99
2016-11-26T14:25:40.284Z,99.99
2016-11-26T14:26:50.622Z,99.99
2016-11-26T14:28:02.476Z,99.99
2016-11-26T14:29:15.315Z,99.99
2016-11-26T14:30:26.094Z,99.99
2016-11-26T14:31:38.305Z,99.99
2016-11-26T14:34:02.185Z,99.99
2016-11-26T14:35:13.531Z,99.99
2016-11-26T14:36:25.842Z,99.99
2016-11-26T14:37:37.223Z,99.99
2016-11-26T14:38:49.461Z,99.99
2016-11-26T14:40:01.894Z,99.99
2016-11-26T14:41:13.621Z,99.99
2016-11-26T14:42:25.476Z,99.99
2016-11-26T14:43:37.672Z,99.99
2016-11-26T14:44:48.920Z,99.99
2016-11-26T14:46:01.145Z,99.99
2016-11-26T14:47:13.183Z,99.99
2016-11-26T14:48:23.356Z,99.99
2016-11-26T14:49:35.136Z,99.99
2016-11-26T14:50:46.612Z,99.99
2016-11-26T14:51:57.490Z,99.99
2016-11-26T14:53:09.278Z,99.99
2016-11-26T14:54:20.749Z,99.99
2016-11-26T14:55:31.642Z,99.99
2016-11-26T14:56:44.266Z,99.99
2016-11-26T14:57:55.771Z,99.99
2016-11-26T14:59:07.682Z,99.99
2016-11-26T15:00:19.824Z,99.99
2016-11-26T15:01:32.628Z,99.99
2016-11-26T15:02:47.048Z,99.99
2016-11-26T15:04:00.455Z,99.99
2016-11-26T15:05:12.685Z,99.99
2016-11-26T15:06:25.460Z,99.99
2016-11-26T15:07:36.232Z,99.99
2016-11-26T15:08:47.874Z,99.99
2016-11-26T15:09:59.958Z,99.99
2016-11-26T15:11:12.066Z,99.99
2016-11-26T15:12:24.538Z,99.99
2016-11-26T15:13:37.026Z,99.99
2016-11-26T15:14:48.621Z,99.99
2016-11-26T15:15:59.532Z,99.99
2016-11-26T15:17:10.912Z,99.99
2016-11-26T15:18:22.955Z,99.99
2016-11-26T15:19:33.829Z,99.99
2016-11-26T15:20:45.170Z,99.99
2016-11-26T15:21:56.971Z,99.99
2016-11-26T15:23:08.480Z,99.99
2016-11-26T15:24:18.920Z,99.99
2016-11-26T15:25:30.591Z,99.99
2016-11-26T15:26:42.399Z,99.99
2016-11-26T15:27:54.293Z,99.99
2016-11-26T15:29:05.354Z,99.99
2016-11-26T15:30:17.277Z,99.99